Time;durP1;ratioP1;P1;durP2;ratioP2;P2;SDS_P1;SDS_P2;PMS_P1;PMS_P2;Temp;Humidity;BMP_temperature;BMP_pressure;BME280_temperature;BME280_humidity;BME280_pressure;Samples;Min_cycle;Max_cycle;Signal;HPM_P1;HPM_P2
2023/10/02 00:02:43;;;;;;;5.60;3.60;;;;;;;13.89;100.00;98541.22;1224219;75;2923225;-73
2023/10/02 00:05:40;;;;;;;4.15;2.85;;;;;;;13.76;100.00;98541.53;1224313;75;2936702;-74
2023/10/02 00:08:25;;;;;;;4.45;2.90;;;;;;;13.91;100.00;98546.28;1222932;75;3036942;-73
2023/10/02 00:11:05;;;;;;;4.30;2.50;;;;;;;13.89;100.00;98548.75;1219577;75;3082888;-73
2023/10/02 00:13:35;;;;;;;5.15;2.90;;;;;;;13.76;100.00;98544.28;1208302;75;4008946;-74
2023/10/02 00:16:08;;;;;;;3.80;2.50;;;;;;;13.77;100.00;98551.31;1219238;75;3105249;-74
2023/10/02 00:18:43;;;;;;;3.80;2.75;;;;;;;13.58;100.00;98549.97;1222214;75;2979551;-74
2023/10/02 00:21:22;;;;;;;3.40;2.40;;;;;;;13.75;100.00;98550.25;1211065;75;3889740;-74
2023/10/02 00:24:02;;;;;;;4.20;2.50;;;;;;;13.81;100.00;98543.63;1221375;75;3103567;-73
2023/10/02 00:26:35;;;;;;;5.40;2.60;;;;;;;13.82;100.00;98547.88;1223245;75;2926824;-75
2023/10/02 00:29:09;;;;;;;3.25;2.55;;;;;;;13.57;100.00;98549.22;1221656;75;3026047;-74
2023/10/02 00:31:44;;;;;;;5.40;3.60;;;;;;;13.62;100.00;98550.56;1211343;75;3950766;-72
2023/10/02 00:34:30;;;;;;;4.90;3.30;;;;;;;13.71;100.00;98560.69;1199189;75;4951793;-73
2023/10/02 00:37:12;;;;;;;4.90;3.10;;;;;;;13.75;100.00;98555.75;1222659;75;3038561;-74
2023/10/02 00:39:47;;;;;;;5.10;3.40;;;;;;;13.81;100.00;98556.63;1223623;75;2950852;-74
2023/10/02 00:42:24;;;;;;;4.50;2.85;;;;;;;13.76;100.00;98557.31;1225650;75;2924835;-74
2023/10/02 00:44:58;;;;;;;3.55;2.35;;;;;;;13.70;100.00;98550.94;1222526;75;3021845;-76
2023/10/02 00:47:41;;;;;;;3.55;2.35;;;;;;;13.70;100.00;98551.69;1221993;75;3018181;-74
2023/10/02 00:50:24;;;;;;;4.05;2.70;;;;;;;13.70;100.00;98554.44;1219653;75;3070142;-75
2023/10/02 00:53:04;;;;;;;4.65;3.05;;;;;;;13.70;100.00;98557.19;1224551;75;2918465;-74
2023/10/02 00:55:38;;;;;;;4.10;2.65;;;;;;;13.68;100.00;98554.16;1225288;75;2917565;-72
2023/10/02 00:58:15;;;;;;;3.90;2.70;;;;;;;13.71;100.00;98555.19;1221668;75;3065548;-74
2023/10/02 01:00:50;;;;;;;3.85;2.75;;;;;;;13.63;100.00;98555.56;1222466;75;3061436;-74
2023/10/02 01:03:24;;;;;;;4.80;3.00;;;;;;;13.41;100.00;98561.44;1221739;75;3062736;-73
2023/10/02 01:05:59;;;;;;;5.65;3.55;;;;;;;13.39;100.00;98554.91;1222671;75;3047520;-74
2023/10/02 01:11:20;;;;;;;3.70;2.60;;;;;;;13.54;100.00;98552.94;1221964;75;2994556;-76
2023/10/02 01:13:53;;;;;;;5.70;3.25;;;;;;;13.26;100.00;98559.88;1196658;75;4912510;-73
2023/10/02 01:16:27;;;;;;;4.55;2.90;;;;;;;13.42;100.00;98553.94;1222797;75;2915336;-72
2023/10/02 01:19:01;;;;;;;4.55;3.05;;;;;;;13.53;100.00;98556.16;1220873;67;3031283;-76
2023/10/02 01:21:37;;;;;;;5.20;2.90;;;;;;;13.55;100.00;98553.69;1222054;75;3056952;-74
2023/10/02 01:24:17;;;;;;;3.90;2.50;;;;;;;13.56;100.00;98557.94;1220610;83;3052976;-73
2023/10/02 01:26:50;;;;;;;4.15;2.50;;;;;;;13.45;100.00;98561.28;1224071;75;2924334;-74
2023/10/02 01:29:24;;;;;;;5.30;2.75;;;;;;;13.24;100.00;98559.59;1223092;75;2953335;-73
2023/10/02 01:31:58;;;;;;;4.20;3.00;;;;;;;13.33;100.00;98565.06;1224131;75;2942256;-77
2023/10/02 01:34:39;;;;;;;5.00;3.20;;;;;;;13.30;100.00;98565.97;1224738;75;2931445;-74
2023/10/02 01:40:28;;;;;;;5.60;3.80;;;;;;;13.15;100.00;98574.16;1211446;75;3862678;-76
2023/10/02 01:42:52;;;;;;;5.85;4.15;;;;;;;13.09;100.00;98570.56;1225802;75;2923691;-76
2023/10/02 01:45:34;;;;;;;7.40;4.20;;;;;;;13.20;100.00;98570.75;1225913;75;2920319;-74
2023/10/02 01:48:08;;;;;;;5.95;3.70;;;;;;;13.11;100.00;98568.88;1225564;75;2920252;-72
2023/10/02 01:50:42;;;;;;;5.50;3.40;;;;;;;13.19;100.00;98575.50;1224430;75;2967782;-76
2023/10/02 01:56:11;;;;;;;3.55;2.60;;;;;;;13.21;100.00;98573.06;1225499;75;2918997;-72
2023/10/02 01:58:44;;;;;;;8.60;5.20;;;;;;;12.94;100.00;98565.00;1222530;75;2979637;-74
2023/10/02 02:01:20;;;;;;;8.45;4.75;;;;;;;13.09;100.00;98570.56;1222482;75;3013939;-72
2023/10/02 02:03:55;;;;;;;4.80;3.35;;;;;;;13.14;100.00;98570.66;1224848;75;2917315;-73
2023/10/02 02:06:28;;;;;;;5.15;3.20;;;;;;;13.18;100.00;98579.50;1226606;75;2917927;-74
2023/10/02 02:09:01;;;;;;;3.75;2.75;;;;;;;12.99;100.00;98580.88;1224814;75;2914417;-74
2023/10/02 02:11:36;;;;;;;3.80;2.65;;;;;;;13.16;100.00;98581.97;1225251;75;2937765;-74
2023/10/02 02:14:12;;;;;;;4.30;2.50;;;;;;;12.94;100.00;98576.00;1212188;75;3887146;-73
2023/10/02 02:16:46;;;;;;;4.35;2.85;;;;;;;12.95;100.00;98591.28;1222557;75;3092128;-74
2023/10/02 02:19:18;;;;;;;3.55;2.70;;;;;;;13.06;100.00;98580.53;1223155;75;2980476;-74
2023/10/02 02:21:56;;;;;;;4.80;2.90;;;;;;;12.95;100.00;98580.28;1225397;75;2925984;-73
2023/10/02 02:24:34;;;;;;;4.20;2.65;;;;;;;12.96;100.00;98590.03;1224119;75;2978491;-72
2023/10/02 02:27:09;;;;;;;2.90;2.20;;;;;;;12.95;100.00;98589.28;1226421;75;2923441;-71
2023/10/02 02:29:43;;;;;;;4.00;2.75;;;;;;;12.88;100.00;98584.16;1224917;75;2924294;-73
2023/10/02 02:32:19;;;;;;;3.30;2.55;;;;;;;12.98;100.00;98591.09;1225401;75;2916789;-74
2023/10/02 02:35:00;;;;;;;3.55;2.40;;;;;;;12.91;100.00;98585.94;1224888;75;2917545;-71
2023/10/02 02:37:33;;;;;;;3.05;2.15;;;;;;;12.88;100.00;98588.88;1222621;75;3000988;-74
2023/10/02 02:42:54;;;;;;;4.50;2.65;;;;;;;12.87;100.00;98582.63;1217293;75;3120877;-72
2023/10/02 02:45:31;;;;;;;3.60;2.30;;;;;;;12.85;100.00;98587.84;1223823;75;2982891;-73
2023/10/02 02:48:10;;;;;;;4.65;2.35;;;;;;;12.74;100.00;98579.34;1225342;75;2927138;-75
2023/10/02 02:50:44;;;;;;;3.85;2.40;;;;;;;12.75;100.00;98589.13;1222823;75;2964589;-73
2023/10/02 02:53:21;;;;;;;4.30;2.90;;;;;;;12.73;100.00;98578.59;1209555;75;3858116;-72
2023/10/02 02:56:22;;;;;;;4.10;2.50;;;;;;;12.69;100.00;98586.25;1221532;75;3009619;-75
2023/10/02 02:59:01;;;;;;;3.50;2.60;;;;;;;12.70;100.00;98582.28;1213184;75;3861327;-76
2023/10/02 03:01:33;;;;;;;;;;;;;;;12.57;100.00;98588.00;1226312;75;2918283;-74
2023/10/02 03:04:11;;;;;;;4.05;2.65;;;;;;;12.61;100.00;98584.34;1221105;75;3095893;-72
2023/10/02 03:06:44;;;;;;;3.00;2.00;;;;;;;12.53;100.00;98584.69;1224269;75;2925197;-72
2023/10/02 03:09:23;;;;;;;3.50;2.40;;;;;;;12.50;100.00;98584.84;1207363;75;3977668;-72
2023/10/02 03:11:55;;;;;;;3.75;2.30;;;;;;;12.54;100.00;98588.19;1224980;75;2921060;-73
2023/10/02 03:14:32;;;;;;;3.75;2.50;;;;;;;12.46;100.00;98587.75;1222684;75;2963392;-73
2023/10/02 03:19:49;;;;;;;4.55;2.85;;;;;;;12.40;100.00;98591.59;1224694;75;2919553;-73
2023/10/02 03:22:24;;;;;;;5.30;3.15;;;;;;;12.30;100.00;98586.16;1223024;75;2922940;-72
2023/10/02 03:25:24;;;;;;;5.00;3.10;;;;;;;12.23;100.00;98583.75;1224404;75;2922833;-75
2023/10/02 03:27:51;;;;;;;4.15;3.00;;;;;;;12.29;100.00;98579.16;1224094;75;2931398;-72
2023/10/02 03:30:38;;;;;;;5.45;3.40;;;;;;;12.33;100.00;98589.94;1224385;75;2915592;-73
2023/10/02 03:33:17;;;;;;;3.80;3.00;;;;;;;12.27;100.00;98597.31;1224247;75;2927103;-73
2023/10/02 03:36:07;;;;;;;4.10;2.70;;;;;;;12.35;100.00;98596.50;1224040;75;2925024;-74
2023/10/02 03:38:44;;;;;;;5.05;2.80;;;;;;;12.34;100.00;98594.22;1224785;75;2919826;-71
2023/10/02 03:41:16;;;;;;;4.20;2.40;;;;;;;12.28;100.00;98601.56;1224859;75;2924012;-73
2023/10/02 03:43:49;;;;;;;3.60;2.40;;;;;;;12.35;100.00;98593.00;1222994;75;2929776;-73
2023/10/02 03:46:35;;;;;;;3.80;2.60;;;;;;;12.30;100.00;98602.63;1206421;75;3792723;-74
2023/10/02 03:49:09;;;;;;;3.75;2.80;;;;;;;12.15;100.00;98602.53;1223357;75;2945066;-74
2023/10/02 03:51:44;;;;;;;4.70;2.80;;;;;;;12.12;100.00;98608.97;1209104;75;3893929;-75
2023/10/02 03:54:23;;;;;;;5.95;3.80;;;;;;;12.06;100.00;98601.81;1224216;75;2923163;-76
2023/10/02 03:56:57;;;;;;;6.45;3.75;;;;;;;12.06;100.00;98594.31;1224973;75;2915589;-73
2023/10/02 03:59:51;;;;;;;4.70;3.10;;;;;;;12.19;100.00;98598.84;1222273;75;2972760;-73
2023/10/02 04:02:30;;;;;;;4.95;3.10;;;;;;;12.14;100.00;98592.75;1219365;75;3097797;-73
2023/10/02 04:05:03;;;;;;;4.80;3.50;;;;;;;12.11;100.00;98598.44;1208883;75;3817753;-76
2023/10/02 04:07:35;;;;;;;4.45;3.10;;;;;;;11.92;100.00;98601.22;1224875;75;2917953;-74
2023/10/02 04:10:11;;;;;;;7.80;4.20;;;;;;;11.88;100.00;98599.84;1186152;75;4827809;-75
2023/10/02 04:12:57;;;;;;;4.65;3.35;;;;;;;11.96;100.00;98597.56;1199912;75;3824010;-75
2023/10/02 04:15:32;;;;;;;4.20;2.60;;;;;;;12.02;100.00;98599.22;1221924;75;2980082;-75
2023/10/02 04:18:05;;;;;;;4.60;2.95;;;;;;;12.01;100.00;98605.19;1222212;75;2963224;-75
2023/10/02 04:20:51;;;;;;;5.05;2.85;;;;;;;12.06;100.00;98599.06;1224283;75;2925180;-73
2023/10/02 04:23:25;;;;;;;3.35;2.45;;;;;;;11.95;100.00;98599.53;1218264;75;3081212;-74
2023/10/02 04:25:58;;;;;;;3.60;2.50;;;;;;;11.93;100.00;98597.28;1220269;75;3095524;-77
2023/10/02 04:28:28;;;;;;;4.55;3.10;;;;;;;11.86;100.00;98597.56;1221719;75;2937257;-74
2023/10/02 04:31:06;;;;;;;5.55;3.50;;;;;;;11.75;100.00;98600.03;1220944;75;2938664;-73
2023/10/02 04:33:39;;;;;;;6.00;4.00;;;;;;;11.79;100.00;98605.34;1222823;75;2929114;-77
2023/10/02 04:36:13;;;;;;;6.90;4.75;;;;;;;11.87;100.00;98610.06;1218717;75;3049125;-77
2023/10/02 04:38:49;;;;;;;6.20;4.50;;;;;;;11.83;100.00;98612.19;1196095;75;4909229;-74
2023/10/02 04:41:26;;;;;;;6.70;5.05;;;;;;;11.88;100.00;98606.13;1223166;75;2959430;-74
2023/10/02 04:44:04;;;;;;;9.20;6.25;;;;;;;11.86;100.00;98605.03;1210872;75;3807042;-77
2023/10/02 04:46:34;;;;;;;13.40;9.60;;;;;;;11.78;100.00;98606.56;1217925;75;3105744;-76
2023/10/02 04:49:09;;;;;;;10.95;8.45;;;;;;;11.84;100.00;98607.47;1220467;75;2957553;-77
2023/10/02 04:51:46;;;;;;;14.35;10.80;;;;;;;11.65;100.00;98613.00;1210258;75;4007605;-74
2023/10/02 04:54:19;;;;;;;13.30;10.70;;;;;;;11.79;100.00;98608.84;1210491;75;3814212;-75
2023/10/02 04:57:08;;;;;;;10.50;8.35;;;;;;;11.77;100.00;98608.56;1209705;75;3930884;-76
2023/10/02 04:59:54;;;;;;;19.10;14.20;;;;;;;11.67;100.00;98607.81;1218596;75;3058105;-76
2023/10/02 05:02:29;;;;;;;14.70;11.05;;;;;;;11.76;100.00;98612.53;1200371;75;4825559;-73
2023/10/02 05:05:08;;;;;;;11.85;9.05;;;;;;;11.66;100.00;98611.75;1224110;75;2931870;-74
2023/10/02 05:07:41;;;;;;;8.60;6.30;;;;;;;11.67;100.00;98607.06;1221546;75;2951870;-72
2023/10/02 05:10:11;;;;;;;8.00;5.80;;;;;;;11.55;100.00;98616.97;1206984;75;4019090;-75
2023/10/02 05:12:44;;;;;;;8.50;5.20;;;;;;;11.69;100.00;98610.09;1224694;75;2917691;-75
2023/10/02 05:15:20;;;;;;;5.25;3.95;;;;;;;11.73;100.00;98618.91;1225120;75;2922666;-72
2023/10/02 05:17:55;;;;;;;5.60;3.70;;;;;;;11.71;100.00;98615.88;1222942;75;2921718;-73
2023/10/02 05:20:38;;;;;;;4.20;3.10;;;;;;;11.75;100.00;98624.72;1221093;75;3078436;-72
2023/10/02 05:23:11;;;;;;;5.80;3.60;;;;;;;11.77;100.00;98627.75;1215223;75;2931850;-72
2023/10/02 05:25:47;;;;;;;3.70;2.75;;;;;;;11.77;100.00;98632.50;1222641;75;2933239;-75
2023/10/02 05:28:17;;;;;;;4.15;3.10;;;;;;;11.85;100.00;98623.47;1222226;75;2946508;-72
2023/10/02 05:30:50;;;;;;;5.85;3.20;;;;;;;11.87;100.00;98628.53;1223934;75;2903517;-71
2023/10/02 05:33:37;;;;;;;5.30;3.50;;;;;;;11.70;100.00;98634.31;1223549;75;2923275;-72
2023/10/02 05:36:19;;;;;;;9.15;6.50;;;;;;;11.81;100.00;98635.81;1224415;75;2926039;-72
2023/10/02 05:41:44;;;;;;;9.60;6.30;;;;;;;11.89;100.00;98645.28;1222570;75;2926385;-72
2023/10/02 05:44:23;;;;;;;10.20;6.50;;;;;;;11.87;100.00;98639.50;1223752;75;2923026;-71
2023/10/02 05:47:05;;;;;;;8.70;6.10;;;;;;;12.00;100.00;98640.09;1126641;75;6373991;-69
2023/10/02 05:49:43;;;;;;;7.20;5.00;;;;;;;12.18;100.00;98641.25;1146152;75;5815060;-71
2023/10/02 05:52:21;;;;;;;5.40;3.90;;;;;;;12.22;100.00;98644.59;1067673;75;6300219;-69
2023/10/02 05:54:58;;;;;;;4.45;3.45;;;;;;;12.28;100.00;98643.50;1219990;75;3062020;-71
2023/10/02 05:57:31;;;;;;;5.85;3.70;;;;;;;12.32;100.00;98657.09;1223093;75;2924402;-70
2023/10/02 06:00:16;;;;;;;5.20;3.55;;;;;;;12.40;100.00;98655.50;1223495;75;2927197;-72
2023/10/02 06:02:58;;;;;;;5.70;3.80;;;;;;;12.44;100.00;98653.38;1223467;75;2957250;-72
2023/10/02 06:05:31;;;;;;;5.70;3.80;;;;;;;12.60;100.00;98651.47;1224709;75;2923270;-71
2023/10/02 06:08:10;;;;;;;5.00;3.70;;;;;;;12.70;100.00;98656.47;1222319;75;3007793;-71
2023/10/02 06:10:44;;;;;;;;;;;;;;;12.79;100.00;98659.16;1222688;75;2926486;-74
2023/10/02 06:13:17;;;;;;;10.20;5.50;;;;;;;13.59;100.00;98658.81;1224432;75;2919630;-71
2023/10/02 06:15:52;;;;;;;6.40;4.10;;;;;;;18.09;99.05;98655.03;1223865;75;2936007;-71
2023/10/02 06:18:27;;;;;;;5.70;3.65;;;;;;;20.03;78.48;98656.72;1224174;75;2919717;-73
2023/10/02 06:21:01;;;;;;;7.55;5.55;;;;;;;20.74;73.23;98658.69;1225023;75;2919758;-73
2023/10/02 06:23:40;;;;;;;8.80;5.55;;;;;;;21.74;68.57;98658.00;1222440;75;2926658;-71
2023/10/02 06:26:13;;;;;;;12.20;7.70;;;;;;;21.62;67.69;98655.41;1223015;75;2923442;-71
2023/10/02 06:29:13;;;;;;;12.10;6.90;;;;;;;22.74;63.21;98654.91;1221815;75;2975616;-72
2023/10/02 06:31:41;;;;;;;16.30;7.10;;;;;;;23.30;61.07;98659.41;1223618;75;2923902;-73
2023/10/02 06:34:14;;;;;;;8.85;6.10;;;;;;;25.67;54.94;98650.75;1217341;75;3084052;-73
2023/10/02 06:36:48;;;;;;;8.00;4.95;;;;;;;26.17;52.39;98653.28;1223948;75;2925540;-72
2023/10/02 06:39:26;;;;;;;7.75;4.95;;;;;;;26.94;50.59;98654.78;1224283;75;2926264;-70
2023/10/02 06:42:04;;;;;;;8.70;5.10;;;;;;;28.29;47.68;98660.19;1224015;75;2923091;-72
2023/10/02 06:44:52;;;;;;;7.15;4.20;;;;;;;28.78;46.43;98661.47;1224598;75;2930787;-72
2023/10/02 06:47:28;;;;;;;7.20;4.00;;;;;;;29.63;43.97;98658.44;1224508;75;2947442;-72
2023/10/02 06:50:23;;;;;;;7.15;4.10;;;;;;;31.34;41.08;98655.13;1224600;75;2925119;-72
2023/10/02 06:52:57;;;;;;;7.90;5.00;;;;;;;31.37;40.51;98657.53;1223327;75;2926266;-72
2023/10/02 06:55:34;;;;;;;12.40;5.95;;;;;;;30.49;40.30;98650.28;1222029;75;2922697;-74
2023/10/02 06:58:07;;;;;;;7.90;5.30;;;;;;;30.23;40.90;98657.44;1224288;75;2922169;-74
2023/10/02 07:00:54;;;;;;;12.45;6.25;;;;;;;26.29;48.08;98658.00;1224599;75;2921678;-71
2023/10/02 07:03:28;;;;;;;10.15;5.95;;;;;;;25.19;50.99;98656.72;1225199;75;2922755;-73
2023/10/02 07:06:07;;;;;;;7.20;4.45;;;;;;;24.36;52.18;98655.53;1224984;75;2921634;-72
2023/10/02 07:08:41;;;;;;;7.20;4.20;;;;;;;23.77;54.67;98658.72;1224677;75;2919448;-73
2023/10/02 07:11:18;;;;;;;13.45;6.85;;;;;;;22.03;58.14;98667.47;1222027;75;2976884;-74
2023/10/02 07:13:56;;;;;;;11.80;7.10;;;;;;;21.18;60.23;98660.22;1225280;75;2925957;-73
2023/10/02 07:16:29;;;;;;;14.40;8.10;;;;;;;20.21;62.28;98664.44;1225125;75;2919955;-72
2023/10/02 07:19:01;;;;;;;18.35;9.95;;;;;;;19.61;64.21;98664.28;1224608;75;2917758;-71
2023/10/02 07:21:35;;;;;;;15.90;8.55;;;;;;;19.65;64.58;98673.88;1223752;75;2936069;-70
2023/10/02 07:24:27;;;;;;;15.05;8.00;;;;;;;19.82;65.83;98665.47;1225182;75;2932904;-74
2023/10/02 07:27:02;;;;;;;12.55;6.80;;;;;;;20.67;63.08;98671.13;1224531;75;2919439;-72
2023/10/02 07:29:40;;;;;;;18.80;9.40;;;;;;;18.96;71.94;98665.56;1209149;75;4078273;-72
2023/10/02 07:32:14;;;;;;;19.50;10.10;;;;;;;18.60;77.40;98671.63;1224936;75;2922865;-70
2023/10/02 07:34:48;;;;;;;18.05;8.50;;;;;;;18.80;77.64;98676.16;1224725;75;2922720;-70
2023/10/02 07:37:24;;;;;;;15.35;8.45;;;;;;;19.10;76.52;98676.34;1224914;75;2925559;-73
2023/10/02 07:40:02;;;;;;;16.75;8.30;;;;;;;18.90;77.88;98673.88;1223078;75;2923464;-72
2023/10/02 07:42:38;;;;;;;19.70;9.00;;;;;;;18.79;76.72;98666.34;1225125;75;2915390;-73
2023/10/02 07:45:24;;;;;;;17.35;9.40;;;;;;;19.41;73.04;98676.47;1225087;75;2919150;-70
2023/10/02 07:50:46;;;;;;;14.05;7.90;;;;;;;20.51;70.55;98660.88;1224430;75;2920432;-72
2023/10/02 07:53:19;;;;;;;16.05;7.25;;;;;;;20.94;67.52;98663.03;1224192;75;2916605;-72
2023/10/02 07:55:51;;;;;;;18.65;9.15;;;;;;;21.38;66.23;98658.19;1224338;75;2925111;-74
2023/10/02 07:58:27;;;;;;;19.75;9.40;;;;;;;23.57;57.70;98670.56;1222226;75;2920208;-72
2023/10/02 08:01:06;;;;;;;18.15;8.80;;;;;;;26.51;50.84;98672.59;1222976;75;2927749;-71
2023/10/02 08:03:43;;;;;;;14.55;8.40;;;;;;;30.47;42.89;98659.31;1223764;75;2919976;-73
2023/10/02 08:06:33;;;;;;;16.50;9.30;;;;;;;29.07;44.32;98658.94;1224836;75;2920262;-73
2023/10/02 08:11:54;;;;;;;16.80;9.15;;;;;;;30.28;39.82;98662.09;1224364;75;2922614;-72
2023/10/02 08:14:40;;;;;;;14.80;7.55;;;;;;;33.98;36.29;98653.00;1224665;75;2925720;-71
2023/10/02 08:17:22;;;;;;;17.15;9.25;;;;;;;30.32;40.13;98651.84;1223781;75;2918819;-73
2023/10/02 08:20:15;;;;;;;17.90;9.10;;;;;;;30.74;40.13;98655.66;1224585;75;2913427;-71
2023/10/02 08:22:51;;;;;;;17.65;9.55;;;;;;;30.39;39.99;98649.50;1225683;75;2923156;-73
2023/10/02 08:25:24;;;;;;;20.80;9.25;;;;;;;28.79;41.28;98653.75;1223789;75;2921306;-73
2023/10/02 08:27:58;;;;;;;15.50;9.10;;;;;;;29.88;40.68;98640.66;1224254;75;2924566;-73
2023/10/02 08:30:36;;;;;;;16.70;9.00;;;;;;;29.71;40.92;98633.00;1222608;75;3018423;-72
2023/10/02 08:33:10;;;;;;;17.70;10.00;;;;;;;29.20;43.58;98634.53;1225748;75;2921940;-74
2023/10/02 08:35:47;;;;;;;20.40;8.30;;;;;;;28.06;45.26;98632.19;1223552;75;2952339;-75
2023/10/02 08:38:25;;;;;;;19.30;8.80;;;;;;;27.92;44.30;98630.97;1225539;75;2924395;-73
2023/10/02 08:41:03;;;;;;;17.00;9.00;;;;;;;28.50;44.02;98633.75;1226003;75;2915140;-71
2023/10/02 08:43:41;;;;;;;;;;;;;;;25.45;48.78;98640.94;1221964;75;3101990;-74
2023/10/02 08:46:21;;;;;;;16.90;8.85;;;;;;;27.56;46.29;98632.81;1222091;75;3029267;-72
2023/10/02 08:48:57;;;;;;;18.90;9.50;;;;;;;26.55;47.60;98626.00;1224279;75;2926845;-74
2023/10/02 08:51:38;;;;;;;15.50;7.80;;;;;;;29.45;44.18;98623.91;1225252;75;2919982;-73
2023/10/02 08:54:11;;;;;;;12.25;7.80;;;;;;;29.26;43.68;98629.41;1225755;75;2921895;-75
2023/10/02 08:56:48;;;;;;;19.95;9.55;;;;;;;25.60;49.46;98632.59;1223999;75;2911492;-74
2023/10/02 08:59:26;;;;;;;17.70;9.75;;;;;;;26.79;47.48;98629.50;1225472;75;2921897;-72
2023/10/02 09:02:16;;;;;;;22.45;10.40;;;;;;;26.04;50.06;98618.47;1225053;75;2935320;-74
2023/10/02 09:05:09;;;;;;;20.85;9.40;;;;;;;25.36;51.47;98621.84;1224455;75;2923636;-72
2023/10/02 09:08:00;;;;;;;15.75;8.70;;;;;;;26.47;51.23;98610.44;1223110;75;2939152;-73
2023/10/02 09:10:41;;;;;;;13.10;7.80;;;;;;;26.70;50.48;98614.00;1224403;75;2924683;-74
2023/10/02 09:13:20;;;;;;;15.75;9.50;;;;;;;26.25;51.44;98607.06;1223837;75;2930538;-73
2023/10/02 09:15:54;;;;;;;14.50;8.30;;;;;;;26.04;53.29;98609.31;1224846;75;2922569;-71
2023/10/02 09:19:07;;;;;;;16.55;9.80;;;;;;;24.80;54.17;98608.09;1224561;75;2921855;-73
2023/10/02 09:21:46;;;;;;;13.95;7.20;;;;;;;27.08;51.86;98604.69;1224598;75;2923984;-74
2023/10/02 09:24:23;;;;;;;14.35;7.95;;;;;;;27.23;50.84;98611.59;1225056;75;2917840;-74
2023/10/02 09:27:20;;;;;;;16.90;8.50;;;;;;;25.81;52.29;98603.63;1224874;75;2924333;-73
2023/10/02 09:30:15;;;;;;;13.10;8.05;;;;;;;26.33;52.20;98602.19;1223924;75;2914448;-73
2023/10/02 09:32:50;;;;;;;15.30;8.15;;;;;;;26.08;53.15;98601.28;1224400;75;2926443;-75
2023/10/02 09:35:39;;;;;;;14.60;7.20;;;;;;;26.53;51.98;98594.94;1224296;75;2925255;-75
2023/10/02 09:38:13;;;;;;;12.95;7.40;;;;;;;26.78;51.85;98595.06;1224330;75;2932070;-74
2023/10/02 09:41:15;;;;;;;14.35;8.35;;;;;;;25.81;53.70;98596.00;1224044;75;2917606;-75
2023/10/02 09:43:49;;;;;;;16.25;8.40;;;;;;;26.42;52.13;98594.53;1224743;75;2933790;-73
2023/10/02 09:46:29;;;;;;;14.45;7.15;;;;;;;27.25;51.55;98589.28;1223727;75;2937641;-74
2023/10/02 09:49:10;;;;;;;14.40;8.10;;;;;;;26.93;51.36;98580.22;1224223;67;2930044;-72
2023/10/02 09:52:09;;;;;;;11.20;6.60;;;;;;;28.40;49.07;98577.28;1209647;67;4006337;-71
2023/10/02 09:54:53;;;;;;;14.10;7.80;;;;;;;27.80;50.40;98585.59;1223775;75;2932500;-74
2023/10/02 09:57:31;;;;;;;11.85;7.30;;;;;;;28.52;48.62;98578.31;1223582;75;2919684;-73
2023/10/02 10:00:34;;;;;;;12.75;7.20;;;;;;;26.64;51.69;98579.72;1221458;75;3111547;-73
2023/10/02 10:03:31;;;;;;;10.50;6.50;;;;;;;28.42;50.91;98583.81;1225348;75;2927692;-74
2023/10/02 10:06:19;;;;;;;10.65;7.00;;;;;;;28.61;49.75;98580.47;1224811;75;2912567;-73
2023/10/02 10:15:23;;;;;;;13.15;8.15;;;;;;;28.03;50.80;98577.03;1222473;75;2929137;-74
2023/10/02 10:18:12;;;;;;;11.55;6.80;;;;;;;29.13;48.33;98567.72;1224877;75;2922499;-71
2023/10/02 10:20:44;;;;;;;12.05;6.95;;;;;;;29.23;48.45;98555.19;1224930;75;2921833;-72
2023/10/02 10:23:31;;;;;;;14.70;8.50;;;;;;;28.64;48.88;98558.84;1224277;75;2922566;-76
2023/10/02 10:26:07;;;;;;;13.30;8.10;;;;;;;29.08;48.18;98555.38;1224998;75;2923962;-72
2023/10/02 10:28:50;;;;;;;12.40;6.75;;;;;;;28.95;48.46;98555.69;1223843;75;2922258;-73
2023/10/02 10:31:33;;;;;;;12.80;7.45;;;;;;;29.10;49.67;98552.69;1221069;75;3086183;-72
2023/10/02 10:34:05;;;;;;;10.10;6.45;;;;;;;30.11;48.43;98552.75;1224560;75;2917798;-74
2023/10/02 10:36:40;;;;;;;13.40;8.40;;;;;;;27.80;51.53;98551.84;1223347;75;2931589;-73
2023/10/02 10:39:59;;;;;;;13.75;7.90;;;;;;;29.78;47.92;98541.81;1223879;75;2921361;-73
2023/10/02 10:42:42;;;;;;;11.20;6.90;;;;;;;31.23;46.34;98534.09;1222456;75;2927023;-75
2023/10/02 10:45:15;;;;;;;11.80;7.75;;;;;;;28.65;48.32;98538.56;1223837;75;2918678;-73
2023/10/02 10:47:48;;;;;;;11.60;7.00;;;;;;;30.10;47.75;98537.16;1224004;75;2924287;-72
2023/10/02 10:50:32;;;;;;;12.95;8.25;;;;;;;29.71;48.03;98529.31;1224301;75;2925210;-73
2023/10/02 10:55:54;;;;;;;12.50;7.55;;;;;;;29.94;47.05;98531.75;1224338;75;2934140;-73
2023/10/02 10:58:34;;;;;;;13.70;7.60;;;;;;;27.61;51.27;98530.63;1224076;75;2919118;-73
2023/10/02 11:01:13;;;;;;;12.50;7.75;;;;;;;29.20;49.62;98521.75;1224372;75;2922526;-75
2023/10/02 11:03:54;;;;;;;13.75;6.90;;;;;;;28.74;49.28;98517.41;1224312;75;2923702;-72
2023/10/02 11:06:26;;;;;;;14.55;8.25;;;;;;;29.38;49.33;98509.09;1224525;75;2919984;-74
2023/10/02 11:09:16;;;;;;;11.40;6.90;;;;;;;29.68;49.22;98507.91;1223730;75;2932202;-72
2023/10/02 11:11:54;;;;;;;9.70;6.10;;;;;;;30.90;46.47;98509.16;1212601;75;3960392;-82
2023/10/02 11:14:44;;;;;;;12.90;7.30;;;;;;;29.91;47.03;98506.78;1211293;75;4003627;-82
2023/10/02 11:17:32;;;;;;;11.80;6.80;;;;;;;30.49;47.02;98506.16;1210322;75;3953203;-80
